Samus Swan — 9HA2333 — position and weather

sailwx.info

Track history (hours):
 
Tides and Currents Weather Stations Pressure Air Temp Water Temp Dewpoint Dewpoint Depression Visibility Wind Speed Wind Dir Waves Ship Positions

Samus Swan

Last reported at 2014-Dec-13 16:22 UTC. Time now 2014-Dec-21 20:52 UTC.
Position N 32°05' W 081°03'.
Warning: this ship's position is 8 days out of date.

Length 106 m; draft 6.7 m.

Type: Ship. MMSI: 248363000.

Date/timePositionNaut miles runAvg speedWind from/ knotsBaromVisibWave heightAir tempDewpointWater temp
2014-Dec-13 16:22N 32°05' W 081°03'5 1.5
2014-Dec-13 13:08N 32°07' W 081°08'0 0.0
2014-Dec-13 12:27N 32°07' W 081°08'0 0.0
2014-Dec-13 10:33N 32°07' W 081°08'0 0.0
2014-Dec-13 09:20N 32°07' W 081°08'0 0.0
2014-Dec-13 08:27N 32°07' W 081°08'0 0.0
2014-Dec-13 07:29N 32°07' W 081°08'0 0.0
2014-Dec-13 06:33N 32°07' W 081°08'0 0.0
2014-Dec-13 03:21N 32°07' W 081°08'0 0.0
2014-Dec-12 23:33N 32°07' W 081°08'3 3.1
2014-Dec-12 22:34N 32°05' W 081°05'  
2014-Dec-10 16:28N 39°25' W 074°00'1112.7
2014-Dec-10 15:33N 39°36' W 073°56'1312.6
2014-Dec-10 14:33N 39°48' W 073°50'3811.0
2014-Dec-10 11:07N 40°26' W 073°49'5 9.1
2014-Dec-10 10:32N 40°29' W 073°55'1111.7
2014-Dec-10 09:34N 40°38' W 074°03'1 0.5
2014-Dec-10 08:31N 40°39' W 074°03'0 0.0
2014-Dec-10 07:31N 40°39' W 074°03'0 0.0
2014-Dec-10 06:31N 40°39' W 074°03'0 0.0
2014-Dec-10 05:31N 40°39' W 074°03'0 0.0
2014-Dec-10 04:31N 40°39' W 074°03'4 4.7
2014-Dec-10 03:33N 40°38' W 074°09'4 4.5
2014-Dec-10 02:33N 40°43' W 074°07'0 0.0
2014-Dec-09 02:33N 40°43' W 074°07'4 3.9
2014-Dec-09 01:33N 40°39' W 074°09'5 5.0
2014-Dec-09 00:33N 40°37' W 074°03'1110.7
2014-Dec-08 23:33N 40°29' W 073°54'7 7.4
2014-Dec-08 22:34N 40°24' W 073°47'6 5.6
2014-Dec-08 21:33N 40°18' W 073°46'8 7.7
2014-Dec-08 20:30N 40°10' W 073°45'9 8.6
2014-Dec-08 19:31N 40°02' W 073°43'9 8.9
2014-Dec-08 18:28N 39°53' W 073°42'  
2014-Dec-05 09:05N 39°55' W 075°08'  
Track history (hours):
 
Tides and Currents Weather Stations Pressure Air Temp Water Temp Dewpoint Dewpoint Depression Visibility Wind Speed Wind Dir Waves Ship Positions

Samus Swan

Last reported at 2014-Dec-13 16:22 UTC. Time now 2014-Dec-21 20:52 UTC.
Position N 32°05' W 081°03'.
Warning: this ship's position is 8 days out of date.

Length 106 m; draft 6.7 m.

Type: Ship. MMSI: 248363000.

Date/timePositionNaut miles runAvg speedWind from/ knotsBaromVisibWave heightAir tempDewpointWater temp
2014-Dec-13 16:22N 32°05' W 081°03'5 1.5
2014-Dec-13 13:08N 32°07' W 081°08'0 0.0
2014-Dec-13 12:27N 32°07' W 081°08'0 0.0
2014-Dec-13 10:33N 32°07' W 081°08'0 0.0
2014-Dec-13 09:20N 32°07' W 081°08'0 0.0
2014-Dec-13 08:27N 32°07' W 081°08'0 0.0
2014-Dec-13 07:29N 32°07' W 081°08'0 0.0
2014-Dec-13 06:33N 32°07' W 081°08'0 0.0
2014-Dec-13 03:21N 32°07' W 081°08'0 0.0
2014-Dec-12 23:33N 32°07' W 081°08'3 3.1
2014-Dec-12 22:34N 32°05' W 081°05'  
2014-Dec-10 16:28N 39°25' W 074°00'1112.7
2014-Dec-10 15:33N 39°36' W 073°56'1312.6
2014-Dec-10 14:33N 39°48' W 073°50'3811.0
2014-Dec-10 11:07N 40°26' W 073°49'5 9.1
2014-Dec-10 10:32N 40°29' W 073°55'1111.7
2014-Dec-10 09:34N 40°38' W 074°03'1 0.5
2014-Dec-10 08:31N 40°39' W 074°03'0 0.0
2014-Dec-10 07:31N 40°39' W 074°03'0 0.0
2014-Dec-10 06:31N 40°39' W 074°03'0 0.0
2014-Dec-10 05:31N 40°39' W 074°03'0 0.0
2014-Dec-10 04:31N 40°39' W 074°03'4 4.7
2014-Dec-10 03:33N 40°38' W 074°09'4 4.5
2014-Dec-10 02:33N 40°43' W 074°07'0 0.0
2014-Dec-09 02:33N 40°43' W 074°07'4 3.9
2014-Dec-09 01:33N 40°39' W 074°09'5 5.0
2014-Dec-09 00:33N 40°37' W 074°03'1110.7
2014-Dec-08 23:33N 40°29' W 073°54'7 7.4
2014-Dec-08 22:34N 40°24' W 073°47'6 5.6
2014-Dec-08 21:33N 40°18' W 073°46'8 7.7
2014-Dec-08 20:30N 40°10' W 073°45'9 8.6
2014-Dec-08 19:31N 40°02' W 073°43'9 8.9
2014-Dec-08 18:28N 39°53' W 073°42'  
2014-Dec-05 09:05N 39°55' W 075°08'  

Dump ship's entire track history